sensor_id;sensor_type;location;lat;lon;timestamp;pressure;altitude;pressure_sealevel;temperature;humidity
31357;BME280;60001;48.404;11.738;2023-12-04T00:01:02;96575.38;;;-7.76;74.15
31357;BME280;60001;48.404;11.738;2023-12-04T00:02:33;96565.63;;;-7.92;75.21
31357;BME280;60001;48.404;11.738;2023-12-04T00:04:05;96569.66;;;-7.89;74.88
31357;BME280;60001;48.404;11.738;2023-12-04T00:05:36;96555.47;;;-7.93;74.35
31357;BME280;60001;48.404;11.738;2023-12-04T00:07:08;96555.47;;;-8.03;74.53
31357;BME280;60001;48.404;11.738;2023-12-04T00:08:40;96558.97;;;-8.04;75.56
31357;BME280;60001;48.404;11.738;2023-12-04T00:10:12;96565.50;;;-7.90;74.97
31357;BME280;60001;48.404;11.738;2023-12-04T00:11:43;96557.81;;;-7.90;74.66
31357;BME280;60001;48.404;11.738;2023-12-04T00:13:14;96563.75;;;-7.80;75.23
31357;BME280;60001;48.404;11.738;2023-12-04T00:14:45;96558.47;;;-7.88;75.03
31357;BME280;60001;48.404;11.738;2023-12-04T00:16:17;96553.09;;;-7.85;74.25
31357;BME280;60001;48.404;11.738;2023-12-04T00:17:48;96541.75;;;-7.92;74.64
31357;BME280;60001;48.404;11.738;2023-12-04T00:19:19;96554.06;;;-7.77;75.09
31357;BME280;60001;48.404;11.738;2023-12-04T00:20:50;96548.94;;;-7.77;74.81
31357;BME280;60001;48.404;11.738;2023-12-04T00:22:22;96547.69;;;-7.82;75.50
31357;BME280;60001;48.404;11.738;2023-12-04T00:23:55;96540.97;;;-7.74;75.45
31357;BME280;60001;48.404;11.738;2023-12-04T00:25:27;96545.28;;;-7.74;76.01
31357;BME280;60001;48.404;11.738;2023-12-04T00:26:59;96543.38;;;-7.82;76.10
31357;BME280;60001;48.404;11.738;2023-12-04T00:28:31;96537.16;;;-7.79;76.69
31357;BME280;60001;48.404;11.738;2023-12-04T00:30:04;96528.16;;;-7.74;76.33
31357;BME280;60001;48.404;11.738;2023-12-04T00:31:36;96533.56;;;-7.77;76.83
31357;BME280;60001;48.404;11.738;2023-12-04T00:33:08;96530.47;;;-7.61;76.78
31357;BME280;60001;48.404;11.738;2023-12-04T00:34:38;96530.59;;;-7.53;76.48
31357;BME280;60001;48.404;11.738;2023-12-04T00:36:10;96525.59;;;-7.54;76.13
31357;BME280;60001;48.404;11.738;2023-12-04T00:37:41;96528.44;;;-7.48;76.45
31357;BME280;60001;48.404;11.738;2023-12-04T00:39:15;96525.88;;;-7.48;76.30
31357;BME280;60001;48.404;11.738;2023-12-04T00:40:48;96528.88;;;-7.42;76.12
31357;BME280;60001;48.404;11.738;2023-12-04T00:42:18;96526.69;;;-7.47;76.08
31357;BME280;60001;48.404;11.738;2023-12-04T00:43:50;96524.53;;;-7.61;75.95
31357;BME280;60001;48.404;11.738;2023-12-04T00:45:21;96523.28;;;-7.67;77.17
31357;BME280;60001;48.404;11.738;2023-12-04T00:46:53;96525.88;;;-7.67;76.59
31357;BME280;60001;48.404;11.738;2023-12-04T00:48:24;96496.44;;;-7.73;76.70
31357;BME280;60001;48.404;11.738;2023-12-04T00:49:55;96521.81;;;-7.69;76.66
31357;BME280;60001;48.404;11.738;2023-12-04T00:51:26;96519.25;;;-7.69;77.31
31357;BME280;60001;48.404;11.738;2023-12-04T00:52:58;96515.88;;;-7.70;77.58
31357;BME280;60001;48.404;11.738;2023-12-04T00:54:30;96522.91;;;-7.62;77.29
31357;BME280;60001;48.404;11.738;2023-12-04T00:56:02;96515.75;;;-7.59;76.97
31357;BME280;60001;48.404;11.738;2023-12-04T00:57:33;96514.94;;;-7.59;77.38
31357;BME280;60001;48.404;11.738;2023-12-04T00:59:05;96515.50;;;-7.56;77.32
31357;BME280;60001;48.404;11.738;2023-12-04T01:00:37;96517.91;;;-7.54;77.34
31357;BME280;60001;48.404;11.738;2023-12-04T01:02:08;96526.41;;;-7.44;76.57
31357;BME280;60001;48.404;11.738;2023-12-04T01:03:39;96520.75;;;-7.48;76.32
31357;BME280;60001;48.404;11.738;2023-12-04T01:05:11;96515.88;;;-7.60;77.35
31357;BME280;60001;48.404;11.738;2023-12-04T01:06:42;96521.69;;;-7.68;77.29
31357;BME280;60001;48.404;11.738;2023-12-04T01:08:14;96511.03;;;-7.63;78.17
31357;BME280;60001;48.404;11.738;2023-12-04T01:09:46;96509.94;;;-7.51;77.74
31357;BME280;60001;48.404;11.738;2023-12-04T01:11:18;96512.78;;;-7.54;76.91
31357;BME280;60001;48.404;11.738;2023-12-04T01:12:49;96517.09;;;-7.55;77.62
31357;BME280;60001;48.404;11.738;2023-12-04T01:14:21;96511.03;;;-7.44;77.37
31357;BME280;60001;48.404;11.738;2023-12-04T01:15:52;96515.78;;;-7.49;76.96
31357;BME280;60001;48.404;11.738;2023-12-04T01:17:24;96513.47;;;-7.52;77.09
31357;BME280;60001;48.404;11.738;2023-12-04T01:18:54;96506.03;;;-7.46;77.42
31357;BME280;60001;48.404;11.738;2023-12-04T01:20:26;96506.72;;;-7.53;77.21
31357;BME280;60001;48.404;11.738;2023-12-04T01:21:57;96508.47;;;-7.44;77.05
31357;BME280;60001;48.404;11.738;2023-12-04T01:23:29;96498.75;;;-7.40;77.11
31357;BME280;60001;48.404;11.738;2023-12-04T01:25:01;96500.09;;;-7.46;77.38
31357;BME280;60001;48.404;11.738;2023-12-04T01:26:34;96496.06;;;-7.49;77.43
31357;BME280;60001;48.404;11.738;2023-12-04T01:28:04;96483.75;;;-7.45;77.08
31357;BME280;60001;48.404;11.738;2023-12-04T01:29:36;96488.78;;;-7.43;76.95
31357;BME280;60001;48.404;11.738;2023-12-04T01:31:07;96490.91;;;-7.39;76.74
31357;BME280;60001;48.404;11.738;2023-12-04T01:32:39;96479.03;;;-7.40;76.82
31357;BME280;60001;48.404;11.738;2023-12-04T01:34:09;96477.44;;;-7.51;76.51
31357;BME280;60001;48.404;11.738;2023-12-04T01:35:41;96485.94;;;-7.50;76.50
31357;BME280;60001;48.404;11.738;2023-12-04T01:37:12;96473.25;;;-7.42;77.10
31357;BME280;60001;48.404;11.738;2023-12-04T01:38:44;96467.44;;;-7.34;76.75
31357;BME280;60001;48.404;11.738;2023-12-04T01:40:16;96470.66;;;-7.52;76.67
31357;BME280;60001;48.404;11.738;2023-12-04T01:41:48;96473.38;;;-7.43;77.04
31357;BME280;60001;48.404;11.738;2023-12-04T01:43:18;96474.84;;;-7.31;76.49
31357;BME280;60001;48.404;11.738;2023-12-04T01:44:50;96465.38;;;-7.31;75.96
31357;BME280;60001;48.404;11.738;2023-12-04T01:46:21;96470.94;;;-7.26;75.70
31357;BME280;60001;48.404;11.738;2023-12-04T01:47:53;96462.72;;;-7.29;75.42
31357;BME280;60001;48.404;11.738;2023-12-04T01:49:24;96461.06;;;-7.30;75.94
31357;BME280;60001;48.404;11.738;2023-12-04T01:50:58;96460.13;;;-7.20;75.31
31357;BME280;60001;48.404;11.738;2023-12-04T01:52:31;96456.75;;;-7.20;75.82
31357;BME280;60001;48.404;11.738;2023-12-04T01:54:03;96450.13;;;-7.13;75.45
31357;BME280;60001;48.404;11.738;2023-12-04T01:55:38;96448.63;;;-7.06;75.03
31357;BME280;60001;48.404;11.738;2023-12-04T01:57:10;96447.94;;;-7.08;74.70
31357;BME280;60001;48.404;11.738;2023-12-04T01:58:42;96446.59;;;-7.12;75.08
31357;BME280;60001;48.404;11.738;2023-12-04T02:00:15;96439.69;;;-7.02;74.35
31357;BME280;60001;48.404;11.738;2023-12-04T02:01:46;96435.66;;;-7.14;75.12
31357;BME280;60001;48.404;11.738;2023-12-04T02:03:19;96444.59;;;-7.08;74.72
31357;BME280;60001;48.404;11.738;2023-12-04T02:04:50;96449.28;;;-7.04;74.53
31357;BME280;60001;48.404;11.738;2023-12-04T02:06:22;96439.56;;;-7.10;74.25
31357;BME280;60001;48.404;11.738;2023-12-04T02:07:52;96441.75;;;-7.25;74.32
31357;BME280;60001;48.404;11.738;2023-12-04T02:09:25;96393.47;;;-7.58;74.03
31357;BME280;60001;48.404;11.738;2023-12-04T02:10:57;96437.19;;;-7.21;75.08
31357;BME280;60001;48.404;11.738;2023-12-04T02:12:29;96432.56;;;-7.18;74.52
31357;BME280;60001;48.404;11.738;2023-12-04T02:14:00;96422.06;;;-7.34;74.24
31357;BME280;60001;48.404;11.738;2023-12-04T02:15:32;96429.72;;;-7.14;74.70
31357;BME280;60001;48.404;11.738;2023-12-04T02:17:06;96415.72;;;-7.30;74.78
31357;BME280;60001;48.404;11.738;2023-12-04T02:18:39;96417.88;;;-7.35;74.84
31357;BME280;60001;48.404;11.738;2023-12-04T02:20:13;96410.81;;;-7.23;74.29
31357;BME280;60001;48.404;11.738;2023-12-04T02:21:44;96401.25;;;-7.31;74.54
31357;BME280;60001;48.404;11.738;2023-12-04T02:23:15;96401.66;;;-7.26;74.06
31357;BME280;60001;48.404;11.738;2023-12-04T02:24:48;96399.25;;;-7.27;74.61
31357;BME280;60001;48.404;11.738;2023-12-04T02:26:28;96396.41;;;-7.34;74.60
31357;BME280;60001;48.404;11.738;2023-12-04T02:28:06;96388.31;;;-7.29;73.96
31357;BME280;60001;48.404;11.738;2023-12-04T02:29:47;96383.75;;;-7.45;74.98
31357;BME280;60001;48.404;11.738;2023-12-04T02:31:24;96385.09;;;-7.41;75.09
31357;BME280;60001;48.404;11.738;2023-12-04T02:32:57;96381.44;;;-7.29;74.57
31357;BME280;60001;48.404;11.738;2023-12-04T02:34:32;96391.16;;;-7.32;74.63
31357;BME280;60001;48.404;11.738;2023-12-04T02:36:09;96389.81;;;-7.36;74.13
31357;BME280;60001;48.404;11.738;2023-12-04T02:37:42;96391.94;;;-7.32;74.06
31357;BME280;60001;48.404;11.738;2023-12-04T02:39:13;96389.94;;;-7.28;74.21
31357;BME280;60001;48.404;11.738;2023-12-04T02:40:46;96380.63;;;-7.29;74.31
31357;BME280;60001;48.404;11.738;2023-12-04T02:42:18;96390.56;;;-7.17;73.70
31357;BME280;60001;48.404;11.738;2023-12-04T02:43:49;96391.66;;;-7.19;74.02
31357;BME280;60001;48.404;11.738;2023-12-04T02:45:21;96382.50;;;-7.22;74.08
31357;BME280;60001;48.404;11.738;2023-12-04T02:46:52;96378.16;;;-7.21;74.06
31357;BME280;60001;48.404;11.738;2023-12-04T02:48:24;96385.16;;;-7.13;74.11
31357;BME280;60001;48.404;11.738;2023-12-04T02:49:54;96385.31;;;-7.15;73.44
31357;BME280;60001;48.404;11.738;2023-12-04T02:51:26;96383.09;;;-7.10;73.75
31357;BME280;60001;48.404;11.738;2023-12-04T02:52:57;96382.59;;;-7.13;73.43
31357;BME280;60001;48.404;11.738;2023-12-04T02:54:29;96375.16;;;-7.17;73.09
31357;BME280;60001;48.404;11.738;2023-12-04T02:56:01;96380.19;;;-7.15;73.63
31357;BME280;60001;48.404;11.738;2023-12-04T02:57:33;96377.72;;;-7.17;74.01
31357;BME280;60001;48.404;11.738;2023-12-04T02:59:04;96379.63;;;-7.19;73.49
31357;BME280;60001;48.404;11.738;2023-12-04T03:00:36;96376.41;;;-7.21;73.88
31357;BME280;60001;48.404;11.738;2023-12-04T03:02:07;96375.56;;;-7.11;73.59
31357;BME280;60001;48.404;11.738;2023-12-04T03:03:38;96370.28;;;-7.10;73.47
31357;BME280;60001;48.404;11.738;2023-12-04T03:05:09;96361.78;;;-7.10;73.07
31357;BME280;60001;48.404;11.738;2023-12-04T03:06:41;96373.28;;;-7.24;73.00
31357;BME280;60001;48.404;11.738;2023-12-04T03:08:12;96361.00;;;-7.21;73.60
31357;BME280;60001;48.404;11.738;2023-12-04T03:09:43;96368.06;;;-7.23;73.99
31357;BME280;60001;48.404;11.738;2023-12-04T03:11:16;96362.78;;;-7.21;73.77
31357;BME280;60001;48.404;11.738;2023-12-04T03:12:47;96366.16;;;-7.21;73.52
31357;BME280;60001;48.404;11.738;2023-12-04T03:14:18;96364.53;;;-7.22;73.28
31357;BME280;60001;48.404;11.738;2023-12-04T03:15:50;96358.03;;;-7.26;73.61
31357;BME280;60001;48.404;11.738;2023-12-04T03:17:21;96366.16;;;-7.30;73.55
31357;BME280;60001;48.404;11.738;2023-12-04T03:18:52;96355.88;;;-7.30;74.50
31357;BME280;60001;48.404;11.738;2023-12-04T03:20:23;96356.84;;;-7.31;73.99
31357;BME280;60001;48.404;11.738;2023-12-04T03:21:55;96363.59;;;-7.30;74.13
31357;BME280;60001;48.404;11.738;2023-12-04T03:23:25;96361.31;;;-7.33;74.42
31357;BME280;60001;48.404;11.738;2023-12-04T03:24:57;96346.69;;;-7.23;74.12
31357;BME280;60001;48.404;11.738;2023-12-04T03:26:29;96350.34;;;-7.16;73.53
31357;BME280;60001;48.404;11.738;2023-12-04T03:28:01;96353.28;;;-7.11;73.28
31357;BME280;60001;48.404;11.738;2023-12-04T03:29:33;96344.38;;;-7.17;72.87
31357;BME280;60001;48.404;11.738;2023-12-04T03:31:05;96348.19;;;-7.21;73.04
31357;BME280;60001;48.404;11.738;2023-12-04T03:32:37;96340.66;;;-7.32;73.21
31357;BME280;60001;48.404;11.738;2023-12-04T03:34:07;96347.94;;;-7.27;73.56
31357;BME280;60001;48.404;11.738;2023-12-04T03:35:39;96346.69;;;-7.23;73.58
31357;BME280;60001;48.404;11.738;2023-12-04T03:37:10;96346.94;;;-7.17;73.20
31357;BME280;60001;48.404;11.738;2023-12-04T03:38:42;96351.00;;;-7.14;72.76
31357;BME280;60001;48.404;11.738;2023-12-04T03:40:12;96342.56;;;-7.34;73.43
31357;BME280;60001;48.404;11.738;2023-12-04T03:41:46;96341.75;;;-7.44;73.90
31357;BME280;60001;48.404;11.738;2023-12-04T03:43:17;96337.41;;;-7.34;74.04
31357;BME280;60001;48.404;11.738;2023-12-04T03:44:49;96342.69;;;-7.35;73.77
31357;BME280;60001;48.404;11.738;2023-12-04T03:46:20;96329.31;;;-7.29;74.27
31357;BME280;60001;48.404;11.738;2023-12-04T03:47:51;96329.31;;;-7.29;74.13
31357;BME280;60001;48.404;11.738;2023-12-04T03:49:23;96323.41;;;-7.39;74.54
31357;BME280;60001;48.404;11.738;2023-12-04T03:50:54;96318.41;;;-7.41;73.69
31357;BME280;60001;48.404;11.738;2023-12-04T03:52:25;96321.63;;;-7.39;74.04
31357;BME280;60001;48.404;11.738;2023-12-04T03:53:56;96312.06;;;-7.37;74.45
31357;BME280;60001;48.404;11.738;2023-12-04T03:55:28;96306.09;;;-7.37;74.40
31357;BME280;60001;48.404;11.738;2023-12-04T03:57:00;96310.41;;;-7.38;73.99
31357;BME280;60001;48.404;11.738;2023-12-04T03:58:32;96310.97;;;-7.34;73.68
31357;BME280;60001;48.404;11.738;2023-12-04T04:00:04;96309.72;;;-7.30;73.13
31357;BME280;60001;48.404;11.738;2023-12-04T04:01:37;96320.41;;;-7.35;73.52
31357;BME280;60001;48.404;11.738;2023-12-04T04:03:07;96304.53;;;-7.48;73.98
31357;BME280;60001;48.404;11.738;2023-12-04T04:04:39;96303.72;;;-7.49;74.48
31357;BME280;60001;48.404;11.738;2023-12-04T04:06:10;96305.88;;;-7.54;74.65
31357;BME280;60001;48.404;11.738;2023-12-04T04:07:42;96304.13;;;-7.43;74.75
31357;BME280;60001;48.404;11.738;2023-12-04T04:09:12;96303.06;;;-7.51;74.69
31357;BME280;60001;48.404;11.738;2023-12-04T04:10:44;96301.84;;;-7.56;74.91
31357;BME280;60001;48.404;11.738;2023-12-04T04:12:17;96294.28;;;-7.48;74.68
31357;BME280;60001;48.404;11.738;2023-12-04T04:13:49;96293.47;;;-7.49;74.40
31357;BME280;60001;48.404;11.738;2023-12-04T04:15:19;96294.13;;;-7.47;74.87
31357;BME280;60001;48.404;11.738;2023-12-04T04:16:51;96289.25;;;-7.40;74.39
31357;BME280;60001;48.404;11.738;2023-12-04T04:18:22;96285.97;;;-7.32;74.37
31357;BME280;60001;48.404;11.738;2023-12-04T04:19:54;96280.44;;;-7.28;74.21
31357;BME280;60001;48.404;11.738;2023-12-04T04:21:25;96284.03;;;-7.21;73.62
31357;BME280;60001;48.404;11.738;2023-12-04T04:22:56;96284.91;;;-7.30;73.59
31357;BME280;60001;48.404;11.738;2023-12-04T04:24:27;96284.75;;;-7.28;73.28
31357;BME280;60001;48.404;11.738;2023-12-04T04:25:59;96282.56;;;-7.23;73.74
31357;BME280;60001;48.404;11.738;2023-12-04T04:27:32;96277.88;;;-7.37;73.99
31357;BME280;60001;48.404;11.738;2023-12-04T04:29:05;96294.31;;;-7.30;73.37
31357;BME280;60001;48.404;11.738;2023-12-04T04:30:36;96281.41;;;-7.38;73.72
31357;BME280;60001;48.404;11.738;2023-12-04T04:32:08;96289.25;;;-7.40;73.15
31357;BME280;60001;48.404;11.738;2023-12-04T04:33:39;96289.78;;;-7.36;74.15
31357;BME280;60001;48.404;11.738;2023-12-04T04:35:11;96287.16;;;-7.27;73.59
31357;BME280;60001;48.404;11.738;2023-12-04T04:36:42;96276.97;;;-7.36;73.74
31357;BME280;60001;48.404;11.738;2023-12-04T04:38:15;96281.22;;;-7.27;73.33
31357;BME280;60001;48.404;11.738;2023-12-04T04:39:46;96274.75;;;-7.31;73.32
31357;BME280;60001;48.404;11.738;2023-12-04T04:41:18;96280.59;;;-7.39;73.50
31357;BME280;60001;48.404;11.738;2023-12-04T04:42:50;96286.28;;;-7.35;73.28
31357;BME280;60001;48.404;11.738;2023-12-04T04:44:21;96280.34;;;-7.36;73.58
31357;BME280;60001;48.404;11.738;2023-12-04T04:45:52;96279.63;;;-7.28;73.13
31357;BME280;60001;48.404;11.738;2023-12-04T04:47:24;96271.84;;;-7.36;72.87
31357;BME280;60001;48.404;11.738;2023-12-04T04:48:55;96265.34;;;-7.40;73.21
31357;BME280;60001;48.404;11.738;2023-12-04T04:50:26;96267.06;;;-7.31;72.61
31357;BME280;60001;48.404;11.738;2023-12-04T04:51:57;96265.19;;;-7.29;72.70
31357;BME280;60001;48.404;11.738;2023-12-04T04:53:29;96260.22;;;-7.40;73.03
31357;BME280;60001;48.404;11.738;2023-12-04T04:55:00;96266.81;;;-7.38;73.60
31357;BME280;60001;48.404;11.738;2023-12-04T04:56:31;96261.44;;;-7.45;73.64
31357;BME280;60001;48.404;11.738;2023-12-04T04:58:03;96260.38;;;-7.42;73.84
31357;BME280;60001;48.404;11.738;2023-12-04T04:59:35;96217.41;;;-7.58;73.81
31357;BME280;60001;48.404;11.738;2023-12-04T05:01:08;96256.91;;;-7.51;73.81
31357;BME280;60001;48.404;11.738;2023-12-04T05:02:39;96255.50;;;-7.45;74.53
31357;BME280;60001;48.404;11.738;2023-12-04T05:04:10;96256.06;;;-7.51;74.04
31357;BME280;60001;48.404;11.738;2023-12-04T05:05:41;96258.88;;;-7.45;74.44
31357;BME280;60001;48.404;11.738;2023-12-04T05:07:13;96256.72;;;-7.39;73.92
31357;BME280;60001;48.404;11.738;2023-12-04T05:08:44;96256.16;;;-7.33;74.08
31357;BME280;60001;48.404;11.738;2023-12-04T05:10:16;96252.22;;;-7.28;73.49
31357;BME280;60001;48.404;11.738;2023-12-04T05:11:47;96252.13;;;-7.36;73.22
31357;BME280;60001;48.404;11.738;2023-12-04T05:13:20;96249.66;;;-7.37;73.83
31357;BME280;60001;48.404;11.738;2023-12-04T05:14:51;96254.13;;;-7.30;73.58
31357;BME280;60001;48.404;11.738;2023-12-04T05:16:22;96249.66;;;-7.37;74.01
31357;BME280;60001;48.404;11.738;2023-12-04T05:17:55;96241.72;;;-7.34;73.72
31357;BME280;60001;48.404;11.738;2023-12-04T05:19:27;96241.56;;;-7.33;73.48
31357;BME280;60001;48.404;11.738;2023-12-04T05:20:58;96243.03;;;-7.30;73.88
31357;BME280;60001;48.404;11.738;2023-12-04T05:22:30;96237.91;;;-7.30;74.00
31357;BME280;60001;48.404;11.738;2023-12-04T05:24:01;96234.63;;;-7.23;73.94
31357;BME280;60001;48.404;11.738;2023-12-04T05:25:32;96234.75;;;-7.24;73.48
31357;BME280;60001;48.404;11.738;2023-12-04T05:27:04;96233.16;;;-7.25;73.63
31357;BME280;60001;48.404;11.738;2023-12-04T05:28:37;96233.81;;;-7.23;73.26
31357;BME280;60001;48.404;11.738;2023-12-04T05:30:09;96229.38;;;-7.21;73.30
31357;BME280;60001;48.404;11.738;2023-12-04T05:31:40;96220.97;;;-7.23;73.24
31357;BME280;60001;48.404;11.738;2023-12-04T05:33:11;96221.91;;;-7.14;73.65
31357;BME280;60001;48.404;11.738;2023-12-04T05:34:43;96216.69;;;-7.23;73.18
31357;BME280;60001;48.404;11.738;2023-12-04T05:36:14;96214.53;;;-7.27;73.65
31357;BME280;60001;48.404;11.738;2023-12-04T05:37:45;96214.91;;;-7.22;73.57
31357;BME280;60001;48.404;11.738;2023-12-04T05:39:16;96219.75;;;-7.19;73.80
31357;BME280;60001;48.404;11.738;2023-12-04T05:40:48;96223.47;;;-7.31;73.87
31357;BME280;60001;48.404;11.738;2023-12-04T05:42:20;96236.25;;;-7.22;73.61
31357;BME280;60001;48.404;11.738;2023-12-04T05:43:52;96228.59;;;-7.31;74.27
31357;BME280;60001;48.404;11.738;2023-12-04T05:45:24;96230.97;;;-7.20;74.09
31357;BME280;60001;48.404;11.738;2023-12-04T05:46:54;96233.69;;;-7.22;72.82
31357;BME280;60001;48.404;11.738;2023-12-04T05:48:26;96240.66;;;-7.14;73.47
31357;BME280;60001;48.404;11.738;2023-12-04T05:49:57;96245.00;;;-7.14;73.48
31357;BME280;60001;48.404;11.738;2023-12-04T05:51:29;96240.38;;;-7.11;73.20
31357;BME280;60001;48.404;11.738;2023-12-04T05:53:00;96227.19;;;-7.16;73.02
31357;BME280;60001;48.404;11.738;2023-12-04T05:54:31;96230.78;;;-7.09;73.69
31357;BME280;60001;48.404;11.738;2023-12-04T05:56:04;96229.59;;;-7.14;73.16
31357;BME280;60001;48.404;11.738;2023-12-04T05:57:35;96221.59;;;-7.11;73.42
31357;BME280;60001;48.404;11.738;2023-12-04T05:59:09;96211.72;;;-7.06;73.79
31357;BME280;60001;48.404;11.738;2023-12-04T06:00:41;96204.50;;;-7.21;73.24
31357;BME280;60001;48.404;11.738;2023-12-04T06:02:13;96202.09;;;-7.22;73.46
31357;BME280;60001;48.404;11.738;2023-12-04T06:03:45;96204.66;;;-7.22;73.28
31357;BME280;60001;48.404;11.738;2023-12-04T06:05:17;96214.13;;;-7.23;73.50
31357;BME280;60001;48.404;11.738;2023-12-04T06:06:48;96208.88;;;-7.31;73.69
31357;BME280;60001;48.404;11.738;2023-12-04T06:08:19;96208.94;;;-7.40;74.04
31357;BME280;60001;48.404;11.738;2023-12-04T06:09:50;96209.16;;;-7.34;74.59
31357;BME280;60001;48.404;11.738;2023-12-04T06:11:22;96208.88;;;-7.31;74.43
31357;BME280;60001;48.404;11.738;2023-12-04T06:12:53;96214.16;;;-7.32;74.07
31357;BME280;60001;48.404;11.738;2023-12-04T06:14:26;96216.69;;;-7.23;73.76
31357;BME280;60001;48.404;11.738;2023-12-04T06:15:56;96159.59;;;-7.52;73.49
31357;BME280;60001;48.404;11.738;2023-12-04T06:17:28;96196.66;;;-7.37;74.02
31357;BME280;60001;48.404;11.738;2023-12-04T06:18:59;96203.31;;;-7.54;75.10
31357;BME280;60001;48.404;11.738;2023-12-04T06:20:31;96200.59;;;-7.42;74.70
31357;BME280;60001;48.404;11.738;2023-12-04T06:22:02;96192.34;;;-7.46;74.60
31357;BME280;60001;48.404;11.738;2023-12-04T06:23:34;96188.13;;;-7.37;74.37
31357;BME280;60001;48.404;11.738;2023-12-04T06:25:06;96198.09;;;-7.34;75.55
31357;BME280;60001;48.404;11.738;2023-12-04T06:26:42;96194.34;;;-7.40;75.14
31357;BME280;60001;48.404;11.738;2023-12-04T06:28:13;96196.16;;;-7.23;74.28
31357;BME280;60001;48.404;11.738;2023-12-04T06:29:47;96197.88;;;-7.23;74.45
31357;BME280;60001;48.404;11.738;2023-12-04T06:31:19;96180.22;;;-7.26;74.46
31357;BME280;60001;48.404;11.738;2023-12-04T06:32:52;96180.22;;;-7.26;74.51
31357;BME280;60001;48.404;11.738;2023-12-04T06:34:23;96176.72;;;-7.25;75.13
31357;BME280;60001;48.404;11.738;2023-12-04T06:35:56;96176.13;;;-7.19;74.01
31357;BME280;60001;48.404;11.738;2023-12-04T06:37:27;96172.91;;;-7.21;74.58
31357;BME280;60001;48.404;11.738;2023-12-04T06:39:02;96176.53;;;-7.14;74.15
31357;BME280;60001;48.404;11.738;2023-12-04T06:40:35;96167.94;;;-7.23;74.44
31357;BME280;60001;48.404;11.738;2023-12-04T06:42:07;96169.97;;;-7.26;74.48
31357;BME280;60001;48.404;11.738;2023-12-04T06:43:39;96177.25;;;-7.22;74.55
31357;BME280;60001;48.404;11.738;2023-12-04T06:45:13;96179.34;;;-7.17;74.50
31357;BME280;60001;48.404;11.738;2023-12-04T06:46:49;96176.69;;;-7.15;74.75
31357;BME280;60001;48.404;11.738;2023-12-04T06:48:20;96175.88;;;-7.16;73.88
31357;BME280;60001;48.404;11.738;2023-12-04T06:49:52;96176.53;;;-6.96;73.58
31357;BME280;60001;48.404;11.738;2023-12-04T06:51:24;96172.03;;;-7.12;73.90
31357;BME280;60001;48.404;11.738;2023-12-04T06:52:55;96173.50;;;-7.27;74.39
31357;BME280;60001;48.404;11.738;2023-12-04T06:54:27;96174.75;;;-7.13;74.23
31357;BME280;60001;48.404;11.738;2023-12-04T06:55:58;96171.16;;;-7.03;73.97
31357;BME280;60001;48.404;11.738;2023-12-04T06:57:29;96166.19;;;-7.04;73.97
31357;BME280;60001;48.404;11.738;2023-12-04T06:59:00;96174.25;;;-6.99;73.31
31357;BME280;60001;48.404;11.738;2023-12-04T07:00:34;96168.53;;;-6.93;73.06
31357;BME280;60001;48.404;11.738;2023-12-04T07:02:05;96174.19;;;-6.90;73.13
31357;BME280;60001;48.404;11.738;2023-12-04T07:03:37;96176.03;;;-7.00;73.43
31357;BME280;60001;48.404;11.738;2023-12-04T07:05:09;96173.06;;;-7.05;73.55
31357;BME280;60001;48.404;11.738;2023-12-04T07:06:40;96149.47;;;-7.08;73.39
31357;BME280;60001;48.404;11.738;2023-12-04T07:08:11;96165.91;;;-7.01;73.40
31357;BME280;60001;48.404;11.738;2023-12-04T07:09:42;96164.41;;;-7.04;74.13
31357;BME280;60001;48.404;11.738;2023-12-04T07:11:14;96168.09;;;-7.06;73.80
31357;BME280;60001;48.404;11.738;2023-12-04T07:12:48;96170.13;;;-7.10;74.63
31357;BME280;60001;48.404;11.738;2023-12-04T07:14:20;96167.56;;;-7.10;74.85
31357;BME280;60001;48.404;11.738;2023-12-04T07:15:52;96162.88;;;-7.14;75.19
31357;BME280;60001;48.404;11.738;2023-12-04T07:17:24;96150.47;;;-7.19;75.02
31357;BME280;60001;48.404;11.738;2023-12-04T07:18:54;96150.22;;;-7.16;75.18
31357;BME280;60001;48.404;11.738;2023-12-04T07:20:26;96147.41;;;-7.05;75.50
31357;BME280;60001;48.404;11.738;2023-12-04T07:21:57;96150.63;;;-7.03;74.45
31357;BME280;60001;48.404;11.738;2023-12-04T07:23:29;96143.47;;;-6.99;74.34
31357;BME280;60001;48.404;11.738;2023-12-04T07:25:00;96130.72;;;-7.09;75.27
31357;BME280;60001;48.404;11.738;2023-12-04T07:26:34;96141.13;;;-6.93;74.79
31357;BME280;60001;48.404;11.738;2023-12-04T07:28:06;96137.44;;;-6.90;74.90
31357;BME280;60001;48.404;11.738;2023-12-04T07:29:36;96135.69;;;-6.90;74.34
31357;BME280;60001;48.404;11.738;2023-12-04T07:31:11;96132.25;;;-6.80;74.31
31357;BME280;60001;48.404;11.738;2023-12-04T07:32:42;96139.94;;;-6.80;73.66
31357;BME280;60001;48.404;11.738;2023-12-04T07:34:14;96142.06;;;-6.76;73.58
31357;BME280;60001;48.404;11.738;2023-12-04T07:35:44;96140.44;;;-6.77;73.65
31357;BME280;60001;48.404;11.738;2023-12-04T07:37:17;96139.41;;;-6.84;73.35
31357;BME280;60001;48.404;11.738;2023-12-04T07:38:47;96121.88;;;-6.88;73.66
31357;BME280;60001;48.404;11.738;2023-12-04T07:40:21;96139.34;;;-6.74;73.61
31357;BME280;60001;48.404;11.738;2023-12-04T07:41:53;96132.94;;;-6.70;73.49
31357;BME280;60001;48.404;11.738;2023-12-04T07:43:25;96128.47;;;-6.68;73.21
31357;BME280;60001;48.404;11.738;2023-12-04T07:44:55;96123.13;;;-6.75;73.71
31357;BME280;60001;48.404;11.738;2023-12-04T07:46:29;96122.31;;;-6.75;74.02
31357;BME280;60001;48.404;11.738;2023-12-04T07:48:00;96113.16;;;-6.78;73.94
31357;BME280;60001;48.404;11.738;2023-12-04T07:49:32;96114.28;;;-6.80;73.94
31357;BME280;60001;48.404;11.738;2023-12-04T07:51:03;96101.34;;;-6.88;73.67
31357;BME280;60001;48.404;11.738;2023-12-04T07:52:35;96106.47;;;-6.88;73.56
31357;BME280;60001;48.404;11.738;2023-12-04T07:54:07;96100.69;;;-6.91;73.62
31357;BME280;60001;48.404;11.738;2023-12-04T07:55:38;96103.03;;;-6.97;74.37
31357;BME280;60001;48.404;11.738;2023-12-04T07:57:09;96094.53;;;-6.98;75.29
31357;BME280;60001;48.404;11.738;2023-12-04T07:58:40;96095.19;;;-6.96;74.74
31357;BME280;60001;48.404;11.738;2023-12-04T08:00:13;96102.25;;;-6.98;74.65